createdAt,value
2023-07-14T00:00:26.277Z,11.68
2023-07-14T00:05:24.845Z,12.38
2023-07-14T00:10:33.958Z,13.63
2023-07-14T00:15:28.913Z,10.65
2023-07-14T00:20:27.937Z,14.45
2023-07-14T00:25:20.837Z,15.65
2023-07-14T00:30:26.637Z,13.30
2023-07-14T00:35:26.972Z,11.50
2023-07-14T00:40:24.159Z,13.43
2023-07-14T00:45:21.175Z,14.18
2023-07-14T00:50:22.896Z,14.27
2023-07-14T00:55:26.256Z,12.48
2023-07-14T01:00:32.068Z,13.85
2023-07-14T01:05:26.211Z,15.93
2023-07-14T01:10:22.501Z,15.23
2023-07-14T01:15:14.452Z,16.45
2023-07-14T01:20:11.245Z,13.68
2023-07-14T01:25:18.137Z,18.27
2023-07-14T01:30:10.306Z,19.52
2023-07-14T01:35:03.024Z,12.43
2023-07-14T01:39:55.632Z,15.27
2023-07-14T01:44:49.439Z,13.25
2023-07-14T01:49:46.223Z,13.90
2023-07-14T01:54:45.338Z,12.73
2023-07-14T01:59:40.739Z,12.98
2023-07-14T02:04:36.456Z,10.20
2023-07-14T02:09:30.327Z,10.68
2023-07-14T02:14:25.514Z,7.65
2023-07-14T02:19:22.567Z,13.50
2023-07-14T02:24:23.791Z,9.57
2023-07-14T02:29:15.702Z,9.20
2023-07-14T02:34:12.015Z,7.22
2023-07-14T02:39:05.980Z,11.07
2023-07-14T02:44:04.713Z,8.18
2023-07-14T02:48:56.663Z,13.18
2023-07-14T02:53:48.488Z,12.00
2023-07-14T02:58:40.410Z,6.45
2023-07-14T03:03:35.129Z,7.97
2023-07-14T03:08:29.926Z,11.35
2023-07-14T03:13:21.684Z,12.25
2023-07-14T03:18:15.991Z,12.68
2023-07-14T03:23:08.047Z,12.40
2023-07-14T03:28:02.651Z,9.68
2023-07-14T03:32:54.576Z,7.78
2023-07-14T03:37:47.288Z,8.95
2023-07-14T03:42:40.492Z,10.55
2023-07-14T03:47:33.084Z,8.07
2023-07-14T03:52:25.060Z,11.10
2023-07-14T03:57:17.245Z,13.43
2023-07-14T04:02:09.101Z,10.63
2023-07-14T04:07:00.973Z,10.13
2023-07-14T04:11:53.034Z,13.18
2023-07-14T04:16:44.974Z,9.98
2023-07-14T04:21:36.773Z,8.68
2023-07-14T04:26:30.013Z,13.63
2023-07-14T04:31:22.102Z,10.65
2023-07-14T04:36:15.462Z,10.60
2023-07-14T04:41:07.418Z,11.63
2023-07-14T04:45:59.193Z,13.23
2023-07-14T04:50:52.355Z,22.15
2023-07-14T04:55:46.332Z,25.17
2023-07-14T05:00:40.364Z,17.75
2023-07-14T05:05:33.633Z,20.88
2023-07-14T05:10:26.850Z,11.90
2023-07-14T05:15:19.147Z,14.85
2023-07-14T05:20:12.214Z,11.70
2023-07-14T05:25:04.943Z,13.68
2023-07-14T05:29:56.996Z,12.35
2023-07-14T05:34:50.016Z,14.20
2023-07-14T05:39:42.132Z,15.13
2023-07-14T05:44:33.948Z,14.27
2023-07-14T05:49:25.943Z,10.65
2023-07-14T05:54:18.115Z,21.05
2023-07-14T05:59:10.028Z,13.20
2023-07-14T06:04:01.894Z,11.65
2023-07-14T06:08:56.613Z,11.32
2023-07-14T06:13:48.464Z,15.75
2023-07-14T06:18:40.929Z,14.48
2023-07-14T06:23:32.710Z,16.70
2023-07-14T06:28:24.668Z,11.85
2023-07-14T06:33:17.067Z,13.35
2023-07-14T06:38:09.798Z,14.70
2023-07-14T06:43:02.297Z,13.23
2023-07-14T06:47:54.262Z,13.13
2023-07-14T06:52:46.427Z,12.57
2023-07-14T06:57:38.299Z,11.05
2023-07-14T07:02:30.334Z,14.07
2023-07-14T07:07:22.186Z,9.45
2023-07-14T07:12:14.207Z,11.63
2023-07-14T07:17:06.520Z,10.45
2023-07-14T07:21:58.990Z,11.10
2023-07-14T07:26:50.765Z,12.07
2023-07-14T07:31:42.652Z,11.00
2023-07-14T07:36:34.409Z,11.77
2023-07-14T07:41:27.890Z,11.05
2023-07-14T07:46:22.775Z,14.13
2023-07-14T07:51:15.797Z,11.00
2023-07-14T07:56:08.243Z,9.18
2023-07-14T08:01:03.121Z,8.43
2023-07-14T08:06:02.666Z,9.43
2023-07-14T08:10:55.068Z,12.85
2023-07-14T08:15:46.840Z,9.73
2023-07-14T08:20:39.255Z,12.25
2023-07-14T08:25:31.151Z,13.90
2023-07-14T08:30:23.274Z,13.50
2023-07-14T08:35:15.220Z,14.07
2023-07-14T08:40:09.519Z,13.90
2023-07-14T08:45:30.559Z,14.52
2023-07-14T08:50:27.260Z,22.13
2023-07-14T08:55:25.862Z,17.98
2023-07-14T09:00:25.206Z,20.48
2023-07-14T09:05:22.404Z,19.98
2023-07-14T09:10:14.454Z,24.73
2023-07-14T09:15:20.774Z,19.27
2023-07-14T09:20:45.203Z,22.38
2023-07-14T09:25:58.446Z,22.95
2023-07-14T09:30:51.071Z,18.70
2023-07-14T09:35:45.557Z,18.48
2023-07-14T09:40:40.097Z,18.08
2023-07-14T09:45:34.691Z,19.80
2023-07-14T09:50:27.500Z,18.38
2023-07-14T09:55:21.833Z,14.70
2023-07-14T10:00:21.882Z,18.58
2023-07-14T10:05:49.384Z,14.40
2023-07-14T10:10:44.233Z,14.93
2023-07-14T10:15:37.605Z,15.35
2023-07-14T10:20:30.870Z,15.57
2023-07-14T10:25:23.606Z,11.07
2023-07-14T10:30:38.979Z,13.70
2023-07-14T10:35:34.496Z,13.43
2023-07-14T10:40:30.582Z,12.75
2023-07-14T10:45:22.615Z,12.00
2023-07-14T10:50:30.813Z,8.70
2023-07-14T10:55:30.148Z,11.43
2023-07-14T11:00:31.954Z,12.48
2023-07-14T11:05:26.396Z,15.48
2023-07-14T11:10:36.537Z,12.38
2023-07-14T11:15:51.955Z,9.20
2023-07-14T11:21:00.328Z,9.88
2023-07-14T11:26:25.242Z,8.60
2023-07-14T11:31:24.764Z,10.80
2023-07-14T11:36:21.221Z,7.35
2023-07-14T11:41:15.687Z,11.88
2023-07-14T11:46:15.140Z,9.00
2023-07-14T11:51:18.572Z,12.15
2023-07-14T11:56:25.580Z,9.52
2023-07-14T12:01:26.017Z,9.10
2023-07-14T12:06:21.085Z,8.88
2023-07-14T12:11:41.058Z,9.32
2023-07-14T12:16:47.935Z,7.38
2023-07-14T12:21:56.084Z,8.27
2023-07-14T12:26:57.816Z,10.10
2023-07-14T12:31:55.771Z,6.18
2023-07-14T12:36:47.905Z,7.05
2023-07-14T12:41:48.298Z,11.90
2023-07-14T12:46:40.442Z,8.88
2023-07-14T12:51:37.635Z,8.55
2023-07-14T12:56:33.820Z,5.45
2023-07-14T13:01:25.910Z,4.90
2023-07-14T13:06:20.835Z,8.52
2023-07-14T13:11:29.142Z,6.05
2023-07-14T13:16:25.879Z,5.28
2023-07-14T13:21:36.500Z,8.10
2023-07-14T13:26:29.859Z,7.18
2023-07-14T13:31:26.574Z,8.88
2023-07-14T13:36:24.642Z,8.13
2023-07-14T13:41:28.448Z,8.90
2023-07-14T13:46:25.875Z,10.02
2023-07-14T13:51:22.317Z,8.50
2023-07-14T13:56:20.466Z,6.90
2023-07-14T14:01:18.081Z,8.93
2023-07-14T14:06:14.487Z,9.30
2023-07-14T14:11:06.937Z,9.50
2023-07-14T14:16:02.310Z,6.15
2023-07-14T14:20:56.813Z,8.93
2023-07-14T14:25:49.477Z,5.32
2023-07-14T14:30:48.407Z,8.15
2023-07-14T14:35:40.721Z,9.57
2023-07-14T14:40:33.728Z,11.02
2023-07-14T14:45:27.523Z,6.75
2023-07-14T14:50:23.479Z,6.57
2023-07-14T14:55:17.663Z,6.93
2023-07-14T15:00:18.324Z,10.65
2023-07-14T15:05:21.536Z,8.98
2023-07-14T15:10:13.540Z,6.82
2023-07-14T15:15:06.021Z,6.60
2023-07-14T15:19:57.884Z,9.63
2023-07-14T15:24:51.584Z,6.63
2023-07-14T15:29:44.509Z,6.90
2023-07-14T15:34:36.423Z,7.60
2023-07-14T15:39:28.843Z,9.02
2023-07-14T15:44:21.766Z,7.93
2023-07-14T15:49:19.593Z,8.48
2023-07-14T15:54:33.369Z,10.05
2023-07-14T15:59:25.490Z,10.35
2023-07-14T16:04:17.397Z,7.53
2023-07-14T16:09:17.075Z,8.82
2023-07-14T16:14:14.611Z,7.28
2023-07-14T16:19:07.981Z,8.45
2023-07-14T16:24:03.433Z,9.15
2023-07-14T16:28:55.618Z,9.63
2023-07-14T16:33:47.518Z,9.77
2023-07-14T16:38:39.342Z,9.85
2023-07-14T16:43:31.167Z,9.02
2023-07-14T16:48:23.061Z,8.63
2023-07-14T16:53:19.730Z,11.02
2023-07-14T16:58:22.052Z,7.77
2023-07-14T17:03:31.432Z,7.53
2023-07-14T17:08:26.300Z,7.68
2023-07-14T17:13:25.976Z,8.50
2023-07-14T17:18:21.672Z,8.82
2023-07-14T17:23:19.899Z,7.20
2023-07-14T17:28:20.377Z,7.10
2023-07-14T17:33:12.418Z,7.50
2023-07-14T17:38:04.460Z,9.10
2023-07-14T17:42:58.765Z,8.60
2023-07-14T17:47:51.362Z,7.85
2023-07-14T17:52:45.327Z,10.10
2023-07-14T17:57:37.698Z,6.00
2023-07-14T18:02:33.053Z,7.78
2023-07-14T18:07:25.055Z,8.18
2023-07-14T18:12:18.098Z,8.15
2023-07-14T18:17:18.599Z,7.13
2023-07-14T18:22:22.879Z,8.15
2023-07-14T18:27:18.935Z,8.65
2023-07-14T18:32:11.974Z,4.60
2023-07-14T18:37:10.924Z,7.25
2023-07-14T18:42:04.426Z,14.88
2023-07-14T18:46:56.418Z,7.72
2023-07-14T18:51:48.939Z,10.82
2023-07-14T18:56:41.077Z,7.38
2023-07-14T19:01:33.393Z,5.55
2023-07-14T19:06:26.955Z,8.13
2023-07-14T19:11:25.129Z,6.90
2023-07-14T19:16:23.389Z,9.68
2023-07-14T19:21:20.468Z,6.75
2023-07-14T19:26:15.309Z,9.65
2023-07-14T19:31:28.573Z,7.13
2023-07-14T19:36:20.517Z,6.07
2023-07-14T19:41:16.909Z,5.32
2023-07-14T19:46:14.082Z,6.80
2023-07-14T19:51:06.811Z,6.38
2023-07-14T19:56:00.325Z,7.32
2023-07-14T20:00:58.302Z,9.15
2023-07-14T20:05:51.555Z,6.88
2023-07-14T20:10:44.665Z,7.53
2023-07-14T20:15:36.740Z,12.07
2023-07-14T20:20:28.548Z,11.02
2023-07-14T20:25:21.239Z,11.55
2023-07-14T20:30:20.374Z,9.35
2023-07-14T20:35:17.975Z,7.65
2023-07-14T20:40:13.903Z,9.43
2023-07-14T20:45:32.010Z,8.45
2023-07-14T20:50:25.655Z,6.45
2023-07-14T20:55:24.442Z,5.97
2023-07-14T21:00:18.713Z,6.43
2023-07-14T21:05:10.905Z,8.20
2023-07-14T21:10:03.814Z,6.88
2023-07-14T21:14:56.251Z,10.98
2023-07-14T21:19:48.771Z,8.18
2023-07-14T21:24:41.434Z,10.70
2023-07-14T21:29:33.315Z,10.35
2023-07-14T21:34:25.125Z,10.50
2023-07-14T21:39:24.493Z,7.68
2023-07-14T21:44:16.599Z,7.95
2023-07-14T21:49:11.840Z,7.05
2023-07-14T21:54:04.794Z,5.72
2023-07-14T21:58:56.624Z,5.80
2023-07-14T22:03:48.814Z,8.20
2023-07-14T22:08:40.899Z,6.55
2023-07-14T22:13:34.715Z,9.50
2023-07-14T22:18:44.155Z,6.78
2023-07-14T22:23:37.524Z,8.18
2023-07-14T22:28:29.467Z,9.40
2023-07-14T22:33:25.670Z,10.02
2023-07-14T22:38:18.062Z,12.05
2023-07-14T22:43:27.248Z,8.65
2023-07-14T22:48:19.289Z,6.95
2023-07-14T22:53:16.645Z,11.70
2023-07-14T22:58:12.662Z,6.07
2023-07-14T23:03:31.344Z,5.90
2023-07-14T23:08:23.617Z,6.40
2023-07-14T23:13:19.362Z,12.25
2023-07-14T23:18:11.245Z,9.27
2023-07-14T23:23:03.157Z,6.68
2023-07-14T23:27:55.191Z,7.55
2023-07-14T23:32:47.046Z,8.93
2023-07-14T23:37:39.013Z,12.30
2023-07-14T23:42:31.168Z,7.40
2023-07-14T23:47:25.858Z,9.15
2023-07-14T23:52:18.156Z,8.40
2023-07-14T23:57:10.893Z,7.28
